sensor_id;sensor_type;location;lat;lon;timestamp;pressure;altitude;pressure_sealevel;temperature;humidity
58875;BME280;44652;49.040;12.126;2023-10-08T06:08:22;98157.13;;;13.36;84.44
58875;BME280;44652;49.040;12.126;2023-10-08T06:11:09;98148.38;;;13.40;84.31
58875;BME280;44652;49.040;12.126;2023-10-08T06:13:53;98157.41;;;13.48;83.51
58875;BME280;44652;49.040;12.126;2023-10-08T06:16:26;98161.09;;;13.55;83.64
58875;BME280;44652;49.040;12.126;2023-10-08T06:19:08;98157.75;;;13.63;82.55
58875;BME280;44652;49.040;12.126;2023-10-08T06:21:39;98142.81;;;13.67;82.85
58875;BME280;44652;49.040;12.126;2023-10-08T06:24:07;98142.97;;;13.72;82.12
58875;BME280;44652;49.040;12.126;2023-10-08T06:26:37;98138.78;;;13.83;81.31
58875;BME280;44652;49.040;12.126;2023-10-08T06:29:12;98144.94;;;13.82;81.87
58875;BME280;44652;49.040;12.126;2023-10-08T06:31:54;98146.84;;;13.89;81.52
58875;BME280;44652;49.040;12.126;2023-10-08T06:34:22;98148.78;;;13.96;81.33
58875;BME280;44652;49.040;12.126;2023-10-08T06:36:51;98147.97;;;13.99;81.01
58875;BME280;44652;49.040;12.126;2023-10-08T06:39:23;98141.06;;;14.08;80.28
58875;BME280;44652;49.040;12.126;2023-10-08T06:42:15;98148.22;;;14.12;80.47
58875;BME280;44652;49.040;12.126;2023-10-08T06:44:43;98161.59;;;14.17;80.52
58875;BME280;44652;49.040;12.126;2023-10-08T06:47:13;98159.06;;;14.23;80.73
58875;BME280;44652;49.040;12.126;2023-10-08T06:49:43;98167.22;;;14.34;79.68
58875;BME280;44652;49.040;12.126;2023-10-08T06:52:13;98178.66;;;14.31;78.92
58875;BME280;44652;49.040;12.126;2023-10-08T06:54:40;98177.03;;;14.38;79.52
58875;BME280;44652;49.040;12.126;2023-10-08T06:57:06;98174.16;;;14.27;79.72
58875;BME280;44652;49.040;12.126;2023-10-08T06:59:40;98181.53;;;14.41;79.87
58875;BME280;44652;49.040;12.126;2023-10-08T07:02:09;98191.19;;;14.39;80.51
58875;BME280;44652;49.040;12.126;2023-10-08T07:04:37;98186.03;;;14.46;81.20
58875;BME280;44652;49.040;12.126;2023-10-08T07:07:04;98180.66;;;14.42;80.08
58875;BME280;44652;49.040;12.126;2023-10-08T07:09:36;98184.25;;;14.45;79.64
58875;BME280;44652;49.040;12.126;2023-10-08T07:12:02;98186.03;;;14.46;78.52
58875;BME280;44652;49.040;12.126;2023-10-08T07:14:32;98194.09;;;14.49;77.88
58875;BME280;44652;49.040;12.126;2023-10-08T07:17:00;98200.50;;;14.60;77.54
58875;BME280;44652;49.040;12.126;2023-10-08T07:19:28;98192.63;;;14.64;77.16
58875;BME280;44652;49.040;12.126;2023-10-08T07:22:05;98190.97;;;14.70;76.60
58875;BME280;44652;49.040;12.126;2023-10-08T07:24:44;98190.13;;;14.73;76.97
58875;BME280;44652;49.040;12.126;2023-10-08T07:27:18;98200.75;;;14.73;77.60
58875;BME280;44652;49.040;12.126;2023-10-08T07:29:49;98200.88;;;14.79;77.39
58875;BME280;44652;49.040;12.126;2023-10-08T07:32:16;98201.78;;;14.81;77.18
58875;BME280;44652;49.040;12.126;2023-10-08T07:34:45;98210.88;;;14.94;77.11
58875;BME280;44652;49.040;12.126;2023-10-08T07:37:12;98216.34;;;15.01;75.59
58875;BME280;44652;49.040;12.126;2023-10-08T07:39:40;98226.16;;;15.07;75.59
58875;BME280;44652;49.040;12.126;2023-10-08T07:42:13;98227.91;;;15.05;76.11
58875;BME280;44652;49.040;12.126;2023-10-08T07:44:40;98234.91;;;15.01;77.32
58875;BME280;44652;49.040;12.126;2023-10-08T07:47:07;98243.09;;;15.14;76.85
58875;BME280;44652;49.040;12.126;2023-10-08T07:49:38;98236.91;;;15.15;78.15
58875;BME280;44652;49.040;12.126;2023-10-08T07:52:05;98230.78;;;15.17;78.09
58875;BME280;44652;49.040;12.126;2023-10-08T07:54:32;98233.53;;;15.23;77.58
58875;BME280;44652;49.040;12.126;2023-10-08T07:57:01;98223.94;;;15.31;77.16
58875;BME280;44652;49.040;12.126;2023-10-08T07:59:40;98213.25;;;15.27;77.54
58875;BME280;44652;49.040;12.126;2023-10-08T13:40:20;98291.88;;;19.13;68.07
58875;BME280;44652;49.040;12.126;2023-10-08T13:42:51;98303.44;;;19.00;68.28
58875;BME280;44652;49.040;12.126;2023-10-08T13:45:19;98306.06;;;18.83;69.31
58875;BME280;44652;49.040;12.126;2023-10-08T13:47:53;98301.56;;;18.82;69.61
58875;BME280;44652;49.040;12.126;2023-10-08T13:50:19;98302.34;;;18.65;70.19
58875;BME280;44652;49.040;12.126;2023-10-08T13:52:48;98306.69;;;18.42;71.25
58875;BME280;44652;49.040;12.126;2023-10-08T13:55:14;98315.53;;;18.41;71.17
58875;BME280;44652;49.040;12.126;2023-10-08T13:57:43;98315.53;;;18.41;71.89
58875;BME280;44652;49.040;12.126;2023-10-08T14:00:11;98323.59;;;18.42;71.53
58875;BME280;44652;49.040;12.126;2023-10-08T14:02:42;98323.59;;;18.42;71.59
58875;BME280;44652;49.040;12.126;2023-10-08T14:05:11;98323.41;;;18.16;71.95
58875;BME280;44652;49.040;12.126;2023-10-08T14:07:42;98319.84;;;18.16;71.66
58875;BME280;44652;49.040;12.126;2023-10-08T14:10:11;98305.59;;;18.11;71.61
58875;BME280;44652;49.040;12.126;2023-10-08T14:12:45;98319.75;;;18.04;72.01
58875;BME280;44652;49.040;12.126;2023-10-08T14:15:16;98316.03;;;17.88;72.39
58875;BME280;44652;49.040;12.126;2023-10-08T14:17:46;98318.47;;;17.63;73.20
58875;BME280;44652;49.040;12.126;2023-10-08T14:20:20;98322.75;;;17.49;73.66
58875;BME280;44652;49.040;12.126;2023-10-08T14:22:49;98315.66;;;17.48;74.03
58875;BME280;44652;49.040;12.126;2023-10-08T14:25:27;98319.28;;;17.56;73.80
58875;BME280;44652;49.040;12.126;2023-10-08T14:27:54;98317.22;;;17.27;73.89
58875;BME280;44652;49.040;12.126;2023-10-08T14:30:31;98312.75;;;17.26;74.26
58875;BME280;44652;49.040;12.126;2023-10-08T14:32:59;98314.44;;;17.18;74.28
58875;BME280;44652;49.040;12.126;2023-10-08T14:35:27;98314.34;;;17.09;74.64
58875;BME280;44652;49.040;12.126;2023-10-08T14:38:12;98334.78;;;17.09;74.84
58875;BME280;44652;49.040;12.126;2023-10-08T14:40:58;98332.84;;;16.98;74.85
58875;BME280;44652;49.040;12.126;2023-10-08T14:43:43;98319.50;;;16.97;74.95
58875;BME280;44652;49.040;12.126;2023-10-08T14:46:10;98318.56;;;16.90;75.40
58875;BME280;44652;49.040;12.126;2023-10-08T14:48:38;98325.56;;;16.82;75.18
58875;BME280;44652;49.040;12.126;2023-10-08T14:51:07;98329.72;;;16.66;76.23
58875;BME280;44652;49.040;12.126;2023-10-08T14:53:34;98338.34;;;16.47;76.58
58875;BME280;44652;49.040;12.126;2023-10-08T14:56:00;98342.03;;;16.57;76.36
58875;BME280;44652;49.040;12.126;2023-10-08T14:58:30;98340.16;;;16.48;76.88
58875;BME280;44652;49.040;12.126;2023-10-08T15:00:58;98342.63;;;16.37;77.23
58875;BME280;44652;49.040;12.126;2023-10-08T15:03:24;98343.41;;;16.30;77.91
58875;BME280;44652;49.040;12.126;2023-10-08T15:05:54;98340.75;;;16.32;77.57
58875;BME280;44652;49.040;12.126;2023-10-08T15:08:21;98347.72;;;16.22;77.72
58875;BME280;44652;49.040;12.126;2023-10-08T15:10:49;98339.63;;;16.14;77.95
58875;BME280;44652;49.040;12.126;2023-10-08T15:13:16;98344.13;;;16.20;77.81
58875;BME280;44652;49.040;12.126;2023-10-08T15:15:43;98336.16;;;16.18;77.70
58875;BME280;44652;49.040;12.126;2023-10-08T15:18:10;98345.91;;;16.18;77.71
58875;BME280;44652;49.040;12.126;2023-10-08T15:20:41;98338.56;;;16.03;78.49
58875;BME280;44652;49.040;12.126;2023-10-08T15:23:09;98335.78;;;15.95;78.76
58875;BME280;44652;49.040;12.126;2023-10-08T15:25:39;98334.91;;;15.98;78.70
58875;BME280;44652;49.040;12.126;2023-10-08T15:28:06;98337.38;;;15.86;78.95
58875;BME280;44652;49.040;12.126;2023-10-08T15:30:34;98340.91;;;15.85;78.97
58875;BME280;44652;49.040;12.126;2023-10-08T15:33:01;98348.00;;;15.84;78.87
58875;BME280;44652;49.040;12.126;2023-10-08T15:35:28;98358.38;;;15.72;79.74
58875;BME280;44652;49.040;12.126;2023-10-08T15:37:55;98354.56;;;15.57;79.99
58875;BME280;44652;49.040;12.126;2023-10-08T15:40:22;98361.84;;;15.68;79.68
58875;BME280;44652;49.040;12.126;2023-10-08T15:42:50;98360.13;;;15.70;79.62
58875;BME280;44652;49.040;12.126;2023-10-08T15:45:22;98359.81;;;15.54;80.11
58875;BME280;44652;49.040;12.126;2023-10-08T15:47:49;98370.47;;;15.56;80.07
58875;BME280;44652;49.040;12.126;2023-10-08T15:50:17;98376.59;;;15.50;80.09
58875;BME280;44652;49.040;12.126;2023-10-08T15:52:47;98371.34;;;15.55;80.23
58875;BME280;44652;49.040;12.126;2023-10-08T15:55:14;98375.56;;;15.45;80.49
58875;BME280;44652;49.040;12.126;2023-10-08T15:57:40;98369.41;;;15.46;80.76
58875;BME280;44652;49.040;12.126;2023-10-08T16:00:07;98358.75;;;15.45;80.92
58875;BME280;44652;49.040;12.126;2023-10-08T16:02:34;98350.63;;;15.36;81.18
58875;BME280;44652;49.040;12.126;2023-10-08T16:05:01;98350.56;;;15.34;81.24
58875;BME280;44652;49.040;12.126;2023-10-08T16:07:30;98343.53;;;15.35;81.20
58875;BME280;44652;49.040;12.126;2023-10-08T16:09:57;98341.03;;;15.45;80.99
58875;BME280;44652;49.040;12.126;2023-10-08T16:12:23;98348.03;;;15.39;81.28
58875;BME280;44652;49.040;12.126;2023-10-08T16:14:50;98350.63;;;15.36;81.40
58875;BME280;44652;49.040;12.126;2023-10-08T16:17:17;98356.00;;;15.39;81.27
58875;BME280;44652;49.040;12.126;2023-10-08T16:19:45;98367.38;;;15.31;81.51
58875;BME280;44652;49.040;12.126;2023-10-08T16:22:12;98362.81;;;15.26;81.94
58875;BME280;44652;49.040;12.126;2023-10-08T16:24:39;98374.88;;;15.08;82.37
58875;BME280;44652;49.040;12.126;2023-10-08T16:27:06;98378.66;;;15.21;82.40
58875;BME280;44652;49.040;12.126;2023-10-08T16:29:33;98375.13;;;15.22;82.04
58875;BME280;44652;49.040;12.126;2023-10-08T16:32:03;98382.91;;;15.12;82.54
58875;BME280;44652;49.040;12.126;2023-10-08T16:34:32;98392.44;;;15.03;82.98
58875;BME280;44652;49.040;12.126;2023-10-08T16:37:16;98390.72;;;15.04;83.34
58875;BME280;44652;49.040;12.126;2023-10-08T16:49:02;98406.06;;;14.78;84.71
58875;BME280;44652;49.040;12.126;2023-10-08T16:51:29;98405.91;;;14.70;85.22
58875;BME280;44652;49.040;12.126;2023-10-08T16:53:56;98405.91;;;14.72;84.81
58875;BME280;44652;49.040;12.126;2023-10-08T16:56:23;98410.22;;;14.67;85.52
58875;BME280;44652;49.040;12.126;2023-10-08T16:58:49;98421.69;;;14.66;85.59
58875;BME280;44652;49.040;12.126;2023-10-08T17:01:16;98426.00;;;14.60;85.67
58875;BME280;44652;49.040;12.126;2023-10-08T17:03:43;98425.19;;;14.63;85.57
58875;BME280;44652;49.040;12.126;2023-10-08T17:06:09;98420.59;;;14.56;85.77
58875;BME280;44652;49.040;12.126;2023-10-08T17:08:36;98419.63;;;14.52;86.06
58875;BME280;44652;49.040;12.126;2023-10-08T17:11:05;98422.25;;;14.51;85.88
58875;BME280;44652;49.040;12.126;2023-10-08T17:13:37;98425.91;;;14.57;85.85
58875;BME280;44652;49.040;12.126;2023-10-08T17:16:05;98426.56;;;14.49;86.11
58875;BME280;44652;49.040;12.126;2023-10-08T17:18:34;98420.31;;;14.47;86.22
58875;BME280;44652;49.040;12.126;2023-10-08T17:23:57;98432.50;;;14.39;86.78
58875;BME280;44652;49.040;12.126;2023-10-08T17:26:23;98419.25;;;14.39;86.82
58875;BME280;44652;49.040;12.126;2023-10-08T17:33:01;98422.50;;;14.27;87.26
58875;BME280;44652;49.040;12.126;2023-10-08T17:35:33;98425.91;;;14.21;87.75
58875;BME280;44652;49.040;12.126;2023-10-08T17:38:03;98423.44;;;14.29;87.58
58875;BME280;44652;49.040;12.126;2023-10-08T17:40:33;98423.44;;;14.29;87.29
58875;BME280;44652;49.040;12.126;2023-10-08T17:42:59;98421.78;;;14.32;87.26
58875;BME280;44652;49.040;12.126;2023-10-08T17:45:27;98427.69;;;14.21;87.79
58875;BME280;44652;49.040;12.126;2023-10-08T17:48:28;98426.03;;;14.27;87.73
58875;BME280;44652;49.040;12.126;2023-10-08T17:50:57;98424.16;;;14.22;87.69
58875;BME280;44652;49.040;12.126;2023-10-08T17:53:31;98417.97;;;14.21;87.85
58875;BME280;44652;49.040;12.126;2023-10-08T17:55:58;98422.56;;;14.28;87.63
58875;BME280;44652;49.040;12.126;2023-10-08T17:58:25;98420.75;;;14.27;87.96
58875;BME280;44652;49.040;12.126;2023-10-08T18:00:53;98421.50;;;14.22;88.33
58875;BME280;44652;49.040;12.126;2023-10-08T18:03:19;98418.78;;;14.19;88.79
58875;BME280;44652;49.040;12.126;2023-10-08T18:05:47;98432.97;;;14.21;88.89
58875;BME280;44652;49.040;12.126;2023-10-08T18:08:13;98439.13;;;14.20;88.42
58875;BME280;44652;49.040;12.126;2023-10-08T18:10:40;98438.22;;;14.19;88.62
58875;BME280;44652;49.040;12.126;2023-10-08T18:13:06;98436.25;;;14.10;88.83
58875;BME280;44652;49.040;12.126;2023-10-08T18:15:34;98441.34;;;14.03;89.18
58875;BME280;44652;49.040;12.126;2023-10-08T18:18:02;98437.72;;;13.99;89.75
58875;BME280;44652;49.040;12.126;2023-10-08T18:20:31;98447.13;;;13.86;90.21
58875;BME280;44652;49.040;12.126;2023-10-08T18:23:02;98450.50;;;13.82;90.52
58875;BME280;44652;49.040;12.126;2023-10-08T18:25:29;98442.72;;;13.87;90.48
58875;BME280;44652;49.040;12.126;2023-10-08T18:27:58;98436.53;;;13.88;90.35
58875;BME280;44652;49.040;12.126;2023-10-08T18:30:25;98428.47;;;13.83;90.92
58875;BME280;44652;49.040;12.126;2023-10-08T18:32:52;98428.41;;;13.80;91.14
58875;BME280;44652;49.040;12.126;2023-10-08T18:35:20;98444.28;;;13.80;91.49
58875;BME280;44652;49.040;12.126;2023-10-08T18:37:48;98447.06;;;13.85;91.20
58875;BME280;44652;49.040;12.126;2023-10-08T18:40:16;98415.34;;;13.88;91.15
58875;BME280;44652;49.040;12.126;2023-10-08T18:42:43;98414.44;;;13.87;90.91
58875;BME280;44652;49.040;12.126;2023-10-08T18:45:09;98424.28;;;13.92;90.80
58875;BME280;44652;49.040;12.126;2023-10-08T18:47:38;98419.75;;;13.87;90.90
58875;BME280;44652;49.040;12.126;2023-10-08T18:50:07;98430.19;;;13.81;90.91
58875;BME280;44652;49.040;12.126;2023-10-08T18:52:41;98415.81;;;13.72;91.26
58875;BME280;44652;49.040;12.126;2023-10-08T18:55:08;98415.41;;;13.56;92.17
58875;BME280;44652;49.040;12.126;2023-10-08T18:57:35;98423.50;;;13.62;92.00
58875;BME280;44652;49.040;12.126;2023-10-08T19:00:03;98422.41;;;13.56;92.54
58875;BME280;44652;49.040;12.126;2023-10-08T19:02:37;98417.97;;;13.55;92.45
58875;BME280;44652;49.040;12.126;2023-10-08T19:05:05;98412.78;;;13.58;92.19
58875;BME280;44652;49.040;12.126;2023-10-08T19:07:32;98426.91;;;13.58;92.01
58875;BME280;44652;49.040;12.126;2023-10-08T19:10:00;98421.38;;;13.49;92.62
58875;BME280;44652;49.040;12.126;2023-10-08T19:12:27;98409.50;;;13.35;93.22
58875;BME280;44652;49.040;12.126;2023-10-08T19:15:00;98404.50;;;13.46;92.73
58875;BME280;44652;49.040;12.126;2023-10-08T19:17:27;98401.78;;;13.44;92.77
58875;BME280;44652;49.040;12.126;2023-10-08T19:19:55;98403.47;;;13.41;93.11
58875;BME280;44652;49.040;12.126;2023-10-08T19:22:23;98402.47;;;13.37;93.25
58875;BME280;44652;49.040;12.126;2023-10-08T19:24:51;98410.59;;;13.43;93.06
58875;BME280;44652;49.040;12.126;2023-10-08T19:27:18;98400.91;;;13.44;93.05
58875;BME280;44652;49.040;12.126;2023-10-08T19:29:45;98392.88;;;13.41;92.95
58875;BME280;44652;49.040;12.126;2023-10-08T19:32:12;98400.38;;;13.25;93.79
58875;BME280;44652;49.040;12.126;2023-10-08T19:34:40;98392.75;;;13.36;93.51
58875;BME280;44652;49.040;12.126;2023-10-08T19:37:06;98396.72;;;13.22;94.54
58875;BME280;44652;49.040;12.126;2023-10-08T19:39:33;98385.66;;;13.35;93.77
58875;BME280;44652;49.040;12.126;2023-10-08T19:42:00;98382.28;;;13.41;93.67
58875;BME280;44652;49.040;12.126;2023-10-08T19:44:27;98378.72;;;13.38;93.47
58875;BME280;44652;49.040;12.126;2023-10-08T19:46:55;98383.03;;;13.35;93.95
58875;BME280;44652;49.040;12.126;2023-10-08T19:49:23;98391.97;;;13.40;93.64
58875;BME280;44652;49.040;12.126;2023-10-08T19:51:50;98400.81;;;13.41;93.63
58875;BME280;44652;49.040;12.126;2023-10-08T19:54:16;98414.81;;;13.36;94.27
58875;BME280;44652;49.040;12.126;2023-10-08T19:56:43;98414.97;;;13.11;95.66
